createdAt,value
2018-03-24T00:00:37.466Z,4.66
2018-03-24T00:03:06.571Z,4.70
2018-03-24T00:05:36.445Z,4.76
2018-03-24T00:08:05.551Z,4.81
2018-03-24T00:10:34.657Z,4.94
2018-03-24T00:13:03.754Z,4.80
2018-03-24T00:15:32.930Z,4.63
2018-03-24T00:18:02.826Z,4.53
2018-03-24T00:20:32.695Z,4.50
2018-03-24T00:23:01.777Z,4.36
2018-03-24T00:25:30.900Z,4.33
2018-03-24T00:27:59.998Z,4.29
2018-03-24T00:30:29.137Z,4.35
2018-03-24T00:32:59.012Z,4.36
2018-03-24T00:35:28.127Z,4.29
2018-03-24T00:37:58.196Z,4.23
2018-03-24T00:40:27.295Z,4.13
2018-03-24T00:42:56.406Z,4.02
2018-03-24T00:45:25.497Z,4.09
2018-03-24T00:47:54.607Z,4.10
2018-03-24T00:50:23.714Z,4.19
2018-03-24T00:52:52.838Z,4.14
2018-03-24T00:55:21.919Z,4.04
2018-03-24T00:57:51.802Z,4.19
2018-03-24T01:00:20.898Z,4.20
2018-03-24T01:02:50.783Z,4.29
2018-03-24T01:05:19.890Z,4.18
2018-03-24T01:07:48.990Z,4.15
2018-03-24T01:10:18.096Z,4.15
2018-03-24T01:12:47.969Z,4.16
2018-03-24T01:15:17.101Z,4.15
2018-03-24T01:17:46.184Z,4.13
2018-03-24T01:20:15.300Z,4.18
2018-03-24T01:22:44.412Z,4.16
2018-03-24T01:25:13.519Z,4.26
2018-03-24T01:27:43.405Z,4.16
2018-03-24T01:30:12.482Z,4.18
2018-03-24T01:32:41.613Z,4.17
2018-03-24T01:35:10.695Z,4.14
2018-03-24T01:37:39.798Z,4.14
2018-03-24T01:40:08.908Z,4.18
2018-03-24T01:42:38.009Z,4.11
2018-03-24T01:45:07.106Z,3.97
2018-03-24T01:47:36.979Z,4.02
2018-03-24T01:50:06.095Z,4.13
2018-03-24T01:52:35.186Z,4.27
2018-03-24T01:55:04.291Z,4.42
2018-03-24T01:57:33.385Z,4.62
2018-03-24T02:00:02.511Z,4.73
2018-03-24T02:02:31.625Z,4.81
2018-03-24T02:05:00.709Z,4.88
2018-03-24T02:07:29.810Z,4.86
2018-03-24T02:09:58.919Z,4.84
2018-03-24T02:12:28.066Z,4.80
2018-03-24T02:14:59.065Z,4.89
2018-03-24T02:17:28.189Z,4.73
2018-03-24T02:19:59.029Z,4.78
2018-03-24T02:22:28.141Z,4.77
2018-03-24T02:24:58.595Z,4.78
2018-03-24T02:27:28.449Z,4.79
2018-03-24T02:29:59.084Z,4.79
2018-03-24T02:32:28.970Z,4.75
2018-03-24T02:34:59.115Z,4.66
2018-03-24T02:37:28.213Z,4.62
2018-03-24T02:39:59.051Z,4.40
2018-03-24T02:42:28.143Z,4.52
2018-03-24T02:44:59.087Z,4.39
2018-03-24T02:47:28.196Z,4.37
2018-03-24T02:49:58.292Z,4.34
2018-03-24T02:52:27.394Z,4.22
2018-03-24T02:54:56.494Z,4.16
2018-03-24T02:57:25.637Z,4.19
2018-03-24T02:59:55.487Z,4.17
2018-03-24T03:02:24.596Z,4.14
2018-03-24T03:04:54.471Z,3.92
2018-03-24T03:07:23.589Z,3.81
2018-03-24T03:09:52.714Z,3.72
2018-03-24T03:12:21.814Z,3.74
2018-03-24T03:14:51.678Z,3.65
2018-03-24T03:17:20.792Z,3.59
2018-03-24T03:19:49.887Z,3.61
2018-03-24T03:22:19.012Z,3.64
2018-03-24T03:24:48.137Z,3.77
2018-03-24T03:27:17.322Z,3.74
2018-03-24T03:29:47.945Z,3.64
2018-03-24T03:32:18.904Z,3.75
2018-03-24T03:34:48.024Z,3.80
2018-03-24T03:37:17.894Z,3.73
2018-03-24T03:39:46.995Z,3.85
2018-03-24T03:42:16.098Z,3.87
2018-03-24T03:44:46.730Z,3.83
2018-03-24T03:47:15.831Z,3.81
2018-03-24T03:49:44.935Z,3.80
2018-03-24T03:52:14.050Z,3.85
2018-03-24T03:54:43.910Z,3.77
2018-03-24T03:57:12.985Z,3.70
2018-03-24T03:59:42.106Z,3.69
2018-03-24T04:02:11.220Z,3.69
2018-03-24T04:04:40.338Z,3.72
2018-03-24T04:07:10.211Z,3.76
2018-03-24T04:09:39.315Z,3.82
2018-03-24T04:12:09.180Z,3.81
2018-03-24T04:14:38.297Z,3.85
2018-03-24T04:17:07.386Z,3.74
2018-03-24T04:19:36.494Z,3.77
2018-03-24T04:22:05.602Z,3.73
2018-03-24T04:24:34.681Z,3.76
2018-03-24T04:27:03.788Z,3.88
2018-03-24T04:29:33.652Z,3.91
2018-03-24T04:32:02.757Z,3.87
2018-03-24T04:34:32.624Z,3.88
2018-03-24T04:37:02.499Z,3.96
2018-03-24T04:39:31.589Z,3.99
2018-03-24T04:42:00.726Z,3.98
2018-03-24T04:44:29.822Z,4.03
2018-03-24T04:46:58.930Z,3.95
2018-03-24T04:49:28.025Z,3.88
2018-03-24T04:51:58.387Z,3.84
2018-03-24T04:54:28.248Z,3.85
2018-03-24T04:56:59.204Z,3.78
2018-03-24T04:59:28.301Z,3.78
2018-03-24T05:01:58.396Z,3.81
2018-03-24T05:04:27.495Z,3.72
2018-03-24T05:06:56.582Z,3.73
2018-03-24T05:09:26.473Z,3.62
2018-03-24T05:11:56.337Z,3.66
2018-03-24T05:14:25.423Z,3.63
2018-03-24T05:16:54.526Z,3.55
2018-03-24T05:19:24.427Z,3.47
2018-03-24T05:21:53.561Z,3.57
2018-03-24T05:24:22.669Z,3.51
2018-03-24T05:26:51.779Z,3.53
2018-03-24T05:29:20.875Z,3.56
2018-03-24T05:31:50.756Z,3.67
2018-03-24T05:34:19.867Z,3.61
2018-03-24T05:36:50.477Z,3.67
2018-03-24T05:39:19.576Z,3.61
2018-03-24T05:41:48.696Z,3.57
2018-03-24T05:44:17.770Z,3.59
2018-03-24T05:46:46.882Z,3.50
2018-03-24T05:49:16.766Z,3.47
2018-03-24T05:51:45.869Z,3.49
2018-03-24T05:54:14.985Z,3.47
2018-03-24T05:56:44.098Z,3.46
2018-03-24T05:59:13.983Z,3.42
2018-03-24T06:01:43.082Z,3.45
2018-03-24T06:04:12.205Z,3.53
2018-03-24T06:06:42.075Z,3.44
2018-03-24T06:09:11.203Z,3.50
2018-03-24T06:11:40.324Z,3.49
2018-03-24T06:14:10.234Z,3.51
2018-03-24T06:16:40.083Z,3.52
2018-03-24T06:19:09.190Z,3.58
2018-03-24T06:21:38.298Z,3.62
2018-03-24T06:24:07.387Z,3.68
2018-03-24T06:26:36.492Z,3.71
2018-03-24T06:29:05.604Z,3.68
2018-03-24T06:31:34.984Z,3.84
2018-03-24T06:34:04.093Z,3.88
2018-03-24T06:36:33.182Z,3.87
2018-03-24T06:39:02.315Z,4.02
2018-03-24T06:41:32.180Z,4.05
2018-03-24T06:44:01.382Z,4.18
2018-03-24T06:46:30.480Z,4.22
2018-03-24T06:48:59.598Z,4.23
2018-03-24T06:51:28.699Z,4.30
2018-03-24T06:53:58.577Z,4.31
2018-03-24T06:56:27.721Z,4.44
2018-03-24T06:58:56.802Z,4.47
2018-03-24T07:01:25.903Z,4.52
2018-03-24T07:03:55.785Z,4.57
2018-03-24T07:06:24.888Z,4.83
2018-03-24T07:08:54.009Z,4.87
2018-03-24T07:11:23.115Z,4.87
2018-03-24T07:13:52.955Z,4.94
2018-03-24T07:16:22.074Z,5.16
2018-03-24T07:18:51.171Z,5.36
2018-03-24T07:21:20.326Z,5.44
2018-03-24T07:23:49.399Z,5.51
2018-03-24T07:26:18.513Z,5.64
2018-03-24T07:28:47.607Z,5.70
2018-03-24T07:31:17.490Z,5.73
2018-03-24T07:33:47.382Z,5.79
2018-03-24T07:36:16.496Z,5.87
2018-03-24T07:38:46.393Z,5.99
2018-03-24T07:41:15.494Z,6.05
2018-03-24T07:43:44.593Z,6.11
2018-03-24T07:46:14.488Z,6.26
2018-03-24T07:48:43.618Z,6.36
2018-03-24T07:51:12.722Z,6.44
2018-03-24T07:53:41.866Z,6.51
2018-03-24T07:56:11.718Z,6.59
2018-03-24T07:58:40.843Z,6.68
2018-03-24T08:01:09.984Z,6.76
2018-03-24T08:03:39.131Z,6.84
2018-03-24T08:06:08.212Z,6.90
2018-03-24T08:08:37.368Z,7.01
2018-03-24T08:11:06.453Z,7.16
2018-03-24T08:13:35.600Z,7.26
2018-03-24T08:16:04.684Z,7.30
2018-03-24T08:18:34.547Z,7.40
2018-03-24T08:21:03.649Z,7.44
2018-03-24T08:23:33.512Z,7.50
2018-03-24T08:26:02.640Z,7.61
2018-03-24T08:28:31.734Z,7.69
2018-03-24T08:31:01.642Z,7.79
2018-03-24T08:33:30.778Z,7.90
2018-03-24T08:35:59.929Z,7.96
2018-03-24T08:38:29.027Z,8.09
2018-03-24T08:40:59.482Z,8.10
2018-03-24T08:43:29.539Z,8.08
2018-03-24T08:45:59.494Z,8.18
2018-03-24T08:48:28.606Z,8.24
2018-03-24T08:50:58.766Z,8.31
2018-03-24T08:53:27.876Z,8.42
2018-03-24T08:55:57.007Z,8.51
2018-03-24T08:58:26.121Z,8.60
2018-03-24T09:00:56.003Z,8.68
2018-03-24T09:03:25.170Z,8.71
2018-03-24T09:05:55.005Z,8.80
2018-03-24T09:08:24.899Z,8.84
2018-03-24T09:10:53.991Z,8.89
2018-03-24T09:13:23.108Z,8.94
2018-03-24T09:15:52.235Z,9.05
2018-03-24T09:18:22.310Z,9.10
2018-03-24T09:20:51.438Z,9.18
2018-03-24T09:23:20.550Z,9.29
2018-03-24T09:25:49.664Z,9.38
2018-03-24T09:28:18.781Z,9.41
2018-03-24T09:30:47.895Z,9.48
2018-03-24T09:33:17.044Z,9.56
2018-03-24T09:35:47.823Z,9.57
2018-03-24T09:38:16.976Z,9.63
2018-03-24T09:40:46.824Z,9.66
2018-03-24T09:43:15.977Z,9.73
2018-03-24T09:45:45.097Z,9.76
2018-03-24T09:48:14.201Z,9.83
2018-03-24T09:50:43.308Z,9.88
2018-03-24T09:53:12.430Z,9.95
2018-03-24T09:55:41.542Z,10.08
2018-03-24T09:58:10.674Z,10.25
2018-03-24T10:00:39.805Z,10.36
2018-03-24T10:03:08.973Z,10.49
2018-03-24T10:05:38.876Z,10.55
2018-03-24T10:08:08.756Z,10.62
2018-03-24T10:10:38.185Z,10.69
2018-03-24T10:13:08.218Z,10.78
2018-03-24T10:15:37.335Z,10.76
2018-03-24T10:18:06.439Z,10.78
2018-03-24T10:34:30.053Z,11.04
2018-03-24T10:36:59.175Z,11.15
2018-03-24T10:39:28.286Z,11.21
2018-03-24T10:41:57.444Z,11.28
2018-03-24T10:44:26.517Z,11.39
2018-03-24T10:46:55.633Z,11.51
2018-03-24T10:49:24.743Z,11.54
2018-03-24T10:51:54.615Z,11.49
2018-03-24T10:54:23.752Z,11.28
2018-03-24T10:56:52.853Z,11.14
2018-03-24T10:59:22.735Z,11.08
2018-03-24T11:01:51.866Z,11.06
2018-03-24T11:04:21.760Z,11.18
2018-03-24T11:06:50.843Z,11.34
2018-03-24T11:09:19.977Z,11.50
2018-03-24T11:11:49.835Z,11.56
2018-03-24T11:14:18.942Z,11.69
2018-03-24T11:16:49.558Z,11.77
2018-03-24T11:19:18.704Z,11.73
2018-03-24T11:21:47.786Z,11.59
2018-03-24T11:24:17.683Z,11.58
2018-03-24T11:26:46.837Z,11.75
2018-03-24T11:29:15.916Z,11.93
2018-03-24T11:31:45.054Z,12.01
2018-03-24T11:34:14.145Z,11.98
2018-03-24T11:36:44.052Z,11.87
2018-03-24T11:39:13.187Z,11.93
2018-03-24T11:41:42.287Z,12.00
2018-03-24T11:44:11.383Z,12.13
2018-03-24T11:46:40.497Z,12.33
2018-03-24T11:49:09.608Z,12.39
2018-03-24T11:51:39.466Z,12.44
2018-03-24T11:54:08.591Z,12.31
2018-03-24T11:56:38.537Z,12.33
2018-03-24T11:59:08.386Z,12.36
2018-03-24T12:01:38.269Z,12.30
2018-03-24T12:04:07.396Z,12.39
2018-03-24T12:06:36.550Z,12.42
2018-03-24T12:09:05.660Z,12.42
2018-03-24T12:11:34.791Z,12.42
2018-03-24T12:14:03.915Z,12.53
2018-03-24T12:16:33.054Z,12.69
2018-03-24T12:19:02.229Z,12.78
2018-03-24T12:21:32.119Z,12.77
2018-03-24T12:24:01.754Z,12.87
2018-03-24T12:26:31.644Z,12.65
2018-03-24T12:29:00.751Z,12.60
2018-03-24T12:31:30.614Z,12.69
2018-03-24T12:33:59.756Z,12.75
2018-03-24T12:36:28.866Z,12.86
2018-03-24T12:38:58.755Z,12.88
2018-03-24T12:41:27.870Z,12.97
2018-03-24T12:43:57.011Z,12.94
2018-03-24T12:46:26.115Z,12.81
2018-03-24T12:48:55.217Z,12.84
2018-03-24T12:51:24.390Z,12.90
2018-03-24T12:53:53.472Z,12.93
2018-03-24T12:56:22.604Z,13.15
2018-03-24T12:58:51.706Z,13.21
2018-03-24T13:01:20.829Z,13.13
2018-03-24T13:03:49.948Z,13.29
2018-03-24T13:06:19.838Z,13.43
2018-03-24T13:08:48.939Z,13.46
2018-03-24T13:11:18.850Z,13.44
2018-03-24T13:13:47.986Z,13.64
2018-03-24T13:16:17.095Z,13.75
2018-03-24T13:18:46.223Z,13.81
2018-03-24T13:21:15.334Z,13.77
2018-03-24T13:23:45.964Z,13.79
2018-03-24T13:26:15.092Z,13.73
2018-03-24T13:28:44.234Z,13.80
2018-03-24T13:31:13.341Z,14.21
2018-03-24T13:33:42.474Z,14.44
2018-03-24T13:36:12.338Z,14.67
2018-03-24T13:38:41.463Z,14.94
2018-03-24T13:41:11.559Z,15.15
2018-03-24T13:43:40.691Z,15.57
2018-03-24T13:46:09.784Z,17.09
2018-03-24T13:48:38.889Z,19.87
2018-03-24T13:51:08.772Z,21.86
2018-03-24T13:53:37.891Z,24.48
2018-03-24T13:56:07.030Z,25.42
2018-03-24T13:58:36.137Z,26.50
2018-03-24T14:01:05.292Z,27.34
2018-03-24T14:03:35.182Z,27.17
2018-03-24T14:06:04.333Z,27.08
2018-03-24T14:08:33.450Z,27.52
2018-03-24T14:11:03.168Z,27.27
2018-03-24T14:13:32.305Z,28.46
2018-03-24T14:16:02.216Z,28.85
2018-03-24T14:18:31.342Z,29.13
2018-03-24T14:21:00.475Z,30.24
2018-03-24T14:23:30.375Z,29.74
2018-03-24T14:25:59.510Z,29.90
2018-03-24T14:28:28.691Z,29.49
2018-03-24T14:30:58.583Z,29.65
2018-03-24T14:33:27.731Z,30.18
2018-03-24T14:35:58.421Z,30.72
2018-03-24T14:38:27.550Z,31.37
2018-03-24T14:40:56.647Z,31.61
2018-03-24T14:43:26.554Z,32.08
2018-03-24T14:45:56.472Z,32.07
2018-03-24T14:48:25.603Z,32.46
2018-03-24T14:50:56.713Z,32.78
2018-03-24T14:53:25.856Z,33.29
2018-03-24T14:55:54.949Z,32.68
2018-03-24T14:58:24.061Z,30.44
2018-03-24T15:00:53.171Z,30.65
2018-03-24T15:03:22.292Z,30.44
2018-03-24T15:05:51.415Z,29.99
2018-03-24T15:08:21.275Z,29.98
2018-03-24T15:10:50.429Z,30.95
2018-03-24T15:13:20.354Z,31.04
2018-03-24T15:15:49.454Z,31.02
2018-03-24T15:18:18.559Z,30.25
2018-03-24T15:20:47.678Z,30.80
2018-03-24T15:23:16.814Z,30.73
2018-03-24T15:25:45.954Z,30.18
2018-03-24T15:28:15.086Z,30.13
2018-03-24T15:31:01.828Z,30.94
2018-03-24T15:33:49.355Z,30.96
2018-03-24T15:36:37.080Z,30.33
2018-03-24T15:39:06.196Z,30.79
2018-03-24T15:41:35.336Z,30.52
2018-03-24T15:44:04.478Z,30.69
2018-03-24T15:46:34.408Z,30.74
2018-03-24T15:49:04.323Z,30.86
2018-03-24T15:51:34.510Z,30.43
2018-03-24T15:54:03.619Z,30.78
2018-03-24T15:56:33.489Z,30.39
2018-03-24T15:59:02.618Z,30.13
2018-03-24T16:01:31.754Z,29.99
2018-03-24T16:04:00.925Z,29.95
2018-03-24T16:06:30.818Z,29.24
2018-03-24T16:08:59.918Z,27.70
2018-03-24T16:11:29.049Z,27.21
2018-03-24T16:13:58.194Z,27.12
2018-03-24T16:16:27.324Z,27.87
2018-03-24T16:18:56.430Z,26.99
2018-03-24T16:21:26.326Z,26.82
2018-03-24T16:23:55.423Z,27.63
2018-03-24T16:26:25.306Z,27.67
2018-03-24T16:28:54.426Z,27.68
2018-03-24T16:31:23.546Z,27.26
2018-03-24T16:33:53.431Z,26.60
2018-03-24T16:36:22.555Z,24.37
2018-03-24T16:38:52.442Z,21.71
2018-03-24T16:41:21.541Z,20.31
2018-03-24T16:43:50.658Z,18.80
2018-03-24T16:46:20.525Z,17.96
2018-03-24T16:48:49.659Z,17.40
2018-03-24T16:51:19.712Z,16.71
2018-03-24T16:53:49.652Z,16.19
2018-03-24T16:56:19.707Z,15.85
2018-03-24T16:58:48.835Z,15.70
2018-03-24T17:01:17.952Z,15.48
2018-03-24T17:03:47.070Z,15.28
2018-03-24T17:06:16.198Z,14.98
2018-03-24T17:08:45.338Z,14.74
2018-03-24T17:11:14.486Z,14.58
2018-03-24T17:13:43.605Z,14.17
2018-03-24T17:16:13.456Z,13.96
2018-03-24T17:18:42.581Z,13.82
2018-03-24T17:21:11.690Z,13.70
2018-03-24T17:23:40.793Z,13.59
2018-03-24T17:26:10.690Z,13.47
2018-03-24T17:28:39.814Z,13.33
2018-03-24T17:31:09.696Z,13.24
2018-03-24T17:33:38.837Z,13.22
2018-03-24T17:36:07.996Z,13.20
2018-03-24T17:38:37.118Z,13.15
2018-03-24T17:41:07.020Z,13.07
2018-03-24T17:43:36.895Z,12.98
2018-03-24T17:46:06.026Z,12.92
2018-03-24T17:48:35.155Z,12.87
2018-03-24T17:51:04.323Z,12.76
2018-03-24T17:53:36.445Z,12.69
2018-03-24T17:56:06.160Z,12.64
2018-03-24T17:58:35.257Z,12.60
2018-03-24T18:01:04.456Z,12.53
2018-03-24T18:03:33.573Z,12.46
2018-03-24T18:06:02.665Z,12.39
2018-03-24T18:08:33.334Z,12.27
2018-03-24T18:11:03.205Z,12.23
2018-03-24T18:13:32.302Z,12.16
2018-03-24T18:16:02.212Z,12.16
2018-03-24T18:18:31.300Z,12.14
2018-03-24T18:21:00.427Z,12.08
2018-03-24T18:23:29.530Z,12.02
2018-03-24T18:25:59.451Z,12.00
2018-03-24T18:28:29.317Z,11.94
2018-03-24T18:30:58.441Z,11.90
2018-03-24T18:33:27.548Z,11.82
2018-03-24T18:35:56.692Z,11.77
2018-03-24T18:38:25.761Z,11.73
2018-03-24T18:40:55.672Z,11.71
2018-03-24T18:43:25.540Z,11.70
2018-03-24T18:45:54.655Z,11.70
2018-03-24T18:48:23.786Z,11.63
2018-03-24T18:50:53.633Z,11.53
2018-03-24T18:53:22.742Z,11.42
2018-03-24T18:55:51.897Z,11.34
2018-03-24T18:58:21.035Z,11.37
2018-03-24T19:00:50.901Z,11.27
2018-03-24T19:03:20.816Z,11.24
2018-03-24T19:05:50.714Z,11.21
2018-03-24T19:08:19.886Z,11.23
2018-03-24T19:10:49.788Z,11.17
2018-03-24T19:13:18.931Z,11.16
2018-03-24T19:15:48.026Z,11.16
2018-03-24T19:18:17.894Z,11.12
2018-03-24T19:20:47.041Z,11.01
2018-03-24T19:23:16.155Z,11.07
2018-03-24T19:25:45.304Z,11.04
2018-03-24T19:28:14.432Z,11.02
2018-03-24T19:30:44.306Z,11.01
2018-03-24T19:33:13.443Z,10.93
2018-03-24T19:35:43.295Z,10.84
2018-03-24T19:38:12.438Z,10.62
2018-03-24T19:40:41.554Z,10.62
2018-03-24T19:43:11.457Z,10.57
2018-03-24T19:45:40.548Z,10.67
2018-03-24T19:48:09.667Z,10.54
2018-03-24T19:50:39.506Z,10.31
2018-03-24T19:53:08.640Z,10.14
2018-03-24T19:55:38.563Z,10.11
2018-03-24T19:58:07.706Z,10.10
2018-03-24T20:00:36.846Z,9.99
2018-03-24T20:03:06.739Z,9.90
2018-03-24T20:05:35.850Z,9.90
2018-03-24T20:08:05.013Z,9.87
2018-03-24T20:10:34.178Z,10.00
2018-03-24T20:13:04.055Z,10.08
2018-03-24T20:15:33.207Z,10.21
2018-03-24T20:18:03.089Z,10.18
2018-03-24T20:20:32.233Z,10.05
2018-03-24T20:23:01.329Z,9.88
2018-03-24T20:25:30.435Z,9.86
2018-03-24T20:28:00.744Z,9.83
2018-03-24T20:30:29.837Z,9.88
2018-03-24T20:32:58.985Z,9.87
2018-03-24T20:35:28.177Z,9.93
2018-03-24T20:37:57.301Z,9.87
2018-03-24T20:40:27.181Z,9.71
2018-03-24T20:42:56.336Z,9.76
2018-03-24T20:45:26.676Z,9.60
2018-03-24T20:47:55.769Z,9.47
2018-03-24T20:50:24.870Z,9.40
2018-03-24T20:52:54.057Z,9.34
2018-03-24T20:55:23.143Z,9.28
2018-03-24T20:57:53.061Z,9.34
2018-03-24T21:00:22.221Z,9.27
2018-03-24T21:02:51.344Z,9.29
2018-03-24T21:05:21.216Z,9.18
2018-03-24T21:07:50.375Z,9.09
2018-03-24T21:10:19.451Z,8.98
2018-03-24T21:12:49.330Z,8.91
2018-03-24T21:15:18.423Z,8.90
2018-03-24T21:17:48.304Z,8.87
2018-03-24T21:20:17.471Z,8.83
2018-03-24T21:22:46.602Z,8.83
2018-03-24T21:25:15.731Z,8.76
2018-03-24T21:27:44.843Z,8.69
2018-03-24T21:30:13.972Z,8.59
2018-03-24T21:32:44.589Z,8.52
2018-03-24T21:35:14.495Z,8.50
2018-03-24T21:40:18.910Z,8.64
2018-03-24T21:42:48.090Z,8.56
2018-03-24T21:45:17.213Z,8.56
2018-03-24T21:47:46.413Z,8.51
2018-03-24T21:50:15.575Z,8.56
2018-03-24T21:52:44.701Z,8.44
2018-03-24T21:55:13.820Z,8.44
2018-03-24T21:57:43.705Z,8.34
2018-03-24T22:00:12.874Z,8.22
2018-03-24T22:02:42.737Z,8.14
2018-03-24T22:05:11.890Z,8.11
2018-03-24T22:07:41.006Z,8.05
2018-03-24T22:10:10.174Z,8.03
2018-03-24T22:12:39.356Z,7.98
2018-03-24T22:15:09.259Z,7.82
2018-03-24T22:17:39.118Z,7.78
2018-03-24T22:20:09.031Z,7.76
2018-03-24T22:22:38.177Z,7.64
2018-03-24T22:25:08.091Z,7.48
2018-03-24T22:27:38.058Z,7.43
2018-03-24T22:42:53.861Z,6.85
2018-03-24T22:45:22.999Z,6.88
2018-03-24T22:47:52.101Z,7.09
2018-03-24T22:50:21.224Z,7.01
2018-03-24T22:52:50.351Z,7.16
2018-03-24T22:55:19.495Z,7.14
2018-03-24T22:57:48.618Z,7.17
2018-03-24T23:00:17.773Z,7.39
2018-03-24T23:02:47.636Z,7.44
2018-03-24T23:05:17.525Z,7.56
2018-03-24T23:07:46.650Z,7.61
2018-03-24T23:10:15.809Z,7.65
2018-03-24T23:12:44.954Z,7.68
2018-03-24T23:15:14.061Z,7.74
2018-03-24T23:17:43.968Z,7.87
2018-03-24T23:20:13.826Z,7.85
2018-03-24T23:22:43.019Z,7.83
2018-03-24T23:25:12.134Z,7.86
2018-03-24T23:27:41.278Z,7.75
2018-03-24T23:30:10.408Z,7.70
2018-03-24T23:32:39.530Z,7.80
2018-03-24T23:35:08.671Z,7.86
2018-03-24T23:37:37.814Z,7.97
2018-03-24T23:40:06.958Z,7.88
2018-03-24T23:42:36.054Z,7.84
2018-03-24T23:45:05.179Z,7.76
2018-03-24T23:47:34.286Z,7.63
2018-03-24T23:50:03.414Z,7.29
2018-03-24T23:52:32.532Z,7.16
2018-03-24T23:55:01.702Z,6.97
2018-03-24T23:57:30.821Z,6.86
2018-03-24T23:59:59.946Z,6.78
